Thunder radar more information blitzortung!


Löydät sääaseman tiedot myös:

European Weather Network

Finland Weather Exchange

Weather Underground

AWEKAS



Weather Underground säähistoriasivu

Päivittäin yhteenveto Lokakuu 8, 2017 Yksiköt:  Metriset    Englantilaiset   Molemmat
« Edellinen Päivä
Seuraava Päivä »
Päivittäin Viikoittain Kuukausittain Vuosittain Mukautettu
  Korkea: Matala: Keskiarvo:
Lämpötila: -17.8 °C -15.3 °C -14.4 °C
Kastepiste: -17.8 °C -15.6 °C -14.6 °C
Kosteus: Humidity % 97 % 97 %
Tuulen nopeus: 0 km/h 0 km/h 0 km/h
Tuulenpuuska: 0 km/h - -
Tuuli:- - North
Ilmanpaine: 0 hPa 33799.1 hPa -
Sade: 0 mm    
Historical Graphs
 
 
Taulukkotiedot Lokakuu 8, 2017
Aika Lämpötila Kastepiste Ilmanpaine Tuuli Tuulen nopeus Tuulenpuuska Kosteus Sademäärä (tunneittain)
-17.8 °C -17.8 °C 0 hPa Calm     Humidity % 0 mm
00:00 -15.3 °C -15.6 °C 33799.1 hPa Calm     97 % 0 mm
00:15 -15.3 °C -15.6 °C 33799.1 hPa Calm     97 % 0 mm
00:30 -15.3 °C -15.5 °C 33799.1 hPa Calm     97 % 0 mm
00:45 -15.3 °C -15.6 °C 33809.2 hPa Calm     97 % 0 mm
01:00 -15.3 °C -15.5 °C 33809.2 hPa Calm     97 % 0 mm
01:15 -15.3 °C -15.5 °C 33809.2 hPa Calm     97 % 0 mm
01:30 -15.3 °C -15.4 °C 33809.2 hPa Calm     98 % 0 mm
01:45 -15.3 °C -15.4 °C 33809.2 hPa Calm     98 % 0 mm
02:00 -15.2 °C -15.4 °C 33809.2 hPa Calm     98 % 0 mm
02:30 -15.2 °C -15.4 °C 33809.2 hPa Calm     98 % 0 mm
02:45 -15.2 °C -15.4 °C 33809.2 hPa Calm     98 % 0 mm
03:00 -15.2 °C -15.3 °C 33809.2 hPa Calm     98 % 0 mm
03:15 -15.2 °C -15.3 °C 33809.2 hPa Calm     98 % 0 mm
03:30 -15.2 °C -15.3 °C 33809.2 hPa Calm     98 % 0 mm
03:45 -15.2 °C -15.3 °C 33822.8 hPa Calm     98 % 0 mm
04:00 -15.1 °C -15.3 °C 33822.8 hPa Calm     98 % 0 mm
04:15 -15.1 °C -15.3 °C 33822.8 hPa Calm     98 % 0 mm
04:30 -15.1 °C -15.3 °C 33822.8 hPa Calm     98 % 0 mm
04:45 -15.1 °C -15.2 °C 33822.8 hPa Calm     98 % 0 mm
05:00 -14.9 °C -15.1 °C 33832.9 hPa Calm     98 % 0 mm
05:15 -14.8 °C -15 °C 33832.9 hPa Calm     98 % 0 mm
05:30 -14.8 °C -14.9 °C 33832.9 hPa Calm     98 % 0 mm
05:45 -14.8 °C -14.9 °C 33843.1 hPa Calm     98 % 0 mm
06:00 -14.8 °C -14.9 °C 33843.1 hPa Calm     98 % 0 mm
06:15 -14.8 °C -14.9 °C 33843.1 hPa Calm     98 % 0 mm
06:30 -14.8 °C -14.9 °C 33856.6 hPa Calm     98 % 0 mm
06:45 -14.8 °C -14.9 °C 33856.6 hPa Calm     98 % 0 mm
07:00 -14.8 °C -14.9 °C 33866.8 hPa Calm     98 % 0 mm
07:15 -14.8 °C -14.9 °C 33866.8 hPa Calm     98 % 0 mm
07:30 -14.8 °C -14.9 °C 33866.8 hPa Calm     98 % 0 mm
07:45 -14.8 °C -14.9 °C 33880.3 hPa Calm     98 % 0 mm
08:00 -14.8 °C -15 °C 33880.3 hPa Calm     98 % 0 mm
08:15 -14.8 °C -15 °C 33880.3 hPa Calm     98 % 0 mm
08:30 -14.8 °C -15 °C 33890.5 hPa Calm     98 % 0 mm
08:45 -14.8 °C -15 °C 33890.5 hPa Calm     98 % 0 mm
09:00 -14.8 °C -15 °C 33890.5 hPa Calm     98 % 0 mm
09:15 -14.8 °C -14.9 °C 33900.6 hPa Calm     98 % 0 mm
09:30 -14.7 °C -14.9 °C 33900.6 hPa Calm     98 % 0 mm
09:45 -14.7 °C -14.8 °C 33914.2 hPa Calm     98 % 0 mm
10:00 -14.7 °C -14.8 °C 33914.2 hPa Calm     98 % 0 mm
10:15 -14.6 °C -14.8 °C 33914.2 hPa Calm     98 % 0 mm
10:30 -14.6 °C -14.7 °C 33924.3 hPa Calm     98 % 0 mm
10:45 -14.5 °C -14.6 °C 33924.3 hPa Calm     98 % 0 mm
11:00 -14.4 °C -14.6 °C 33937.9 hPa Calm     98 % 0 mm
11:15 -14.4 °C -14.6 °C 33937.9 hPa Calm     98 % 0 mm
11:30 -14.3 °C -14.4 °C 33937.9 hPa Calm     98 % 0 mm
11:45 -14.1 °C -14.2 °C 33948 hPa Calm     98 % 0 mm
12:00 -13.9 °C -14.1 °C 33948 hPa Calm     99 % 0 mm
12:15 -13.8 °C -14 °C 33958.2 hPa Calm     98 % 0 mm
12:30 -13.9 °C -14.1 °C 33958.2 hPa Calm     98 % 0 mm
12:45 -13.9 °C -14.1 °C 33971.7 hPa Calm     98 % 0 mm
13:00 -13.7 °C -13.9 °C 33971.7 hPa Calm     98 % 0 mm
13:15 -13.7 °C -13.9 °C 33971.7 hPa Calm     98 % 0 mm
13:30 -13.7 °C -13.9 °C 33981.9 hPa Calm     98 % 0 mm
13:45 -13.7 °C -13.8 °C 33981.9 hPa Calm     98 % 0 mm
14:00 -13.7 °C -13.8 °C 33981.9 hPa Calm     98 % 0 mm
14:30 -13.6 °C -13.7 °C 33992.1 hPa Calm     98 % 0 mm
14:45 -13.6 °C -13.7 °C 33992.1 hPa Calm     98 % 0 mm
15:00 -13.6 °C -13.7 °C 33992.1 hPa Calm     98 % 0 mm
15:15 -13.5 °C -13.7 °C 33992.1 hPa Calm     98 % 0 mm
15:30 -13.5 °C -13.7 °C 34005.6 hPa Calm     98 % 0 mm
15:45 -13.6 °C -13.7 °C 34005.6 hPa Calm     98 % 0 mm
16:00 -13.6 °C -13.7 °C 34005.6 hPa Calm     98 % 0 mm
16:15 -13.6 °C -13.7 °C 34015.8 hPa Calm     98 % 0 mm
16:30 -13.7 °C -13.8 °C 34015.8 hPa Calm     98 % 0 mm
16:45 -13.7 °C -13.8 °C 34015.8 hPa Calm     98 % 0 mm
17:00 -13.7 °C -13.8 °C 34029.3 hPa Calm     98 % 0 mm
17:15 -13.7 °C -13.8 °C 34029.3 hPa Calm     98 % 0 mm
17:30 -13.7 °C -13.8 °C 34029.3 hPa Calm     98 % 0 mm
17:45 -13.7 °C -13.9 °C 34039.5 hPa Calm     98 % 0 mm
18:00 -13.7 °C -13.9 °C 34039.5 hPa Calm     98 % 0 mm
18:15 -13.8 °C -13.9 °C 34039.5 hPa Calm     98 % 0 mm
18:30 -13.8 °C -13.9 °C 34049.6 hPa Calm     98 % 0 mm
18:45 -13.8 °C -14 °C 34049.6 hPa Calm     98 % 0 mm
19:00 -13.8 °C -14 °C 34063.2 hPa Calm     98 % 0 mm
19:15 -13.8 °C -14 °C 34063.2 hPa Calm     98 % 0 mm
19:30 -13.8 °C -14 °C 34063.2 hPa Calm     98 % 0 mm
19:45 -13.8 °C -14 °C 34063.2 hPa Calm     98 % 0 mm
20:00 -13.8 °C -14 °C 34073.3 hPa Calm     98 % 0 mm
20:15 -13.8 °C -14 °C 34073.3 hPa Calm     98 % 0 mm
20:30 -13.8 °C -14 °C 34073.3 hPa Calm     98 % 0 mm
20:45 -13.8 °C -14 °C 34073.3 hPa Calm     98 % 0 mm
21:00 -13.8 °C -14 °C 34086.9 hPa Calm     98 % 0 mm
21:15 -13.8 °C -13.9 °C 34086.9 hPa Calm     98 % 0 mm
21:45 -13.8 °C -13.9 °C 34097 hPa Calm     98 % 0 mm
22:00 -13.8 °C -13.9 °C 34097 hPa Calm     98 % 0 mm
22:15 -13.8 °C -13.9 °C 34097 hPa Calm     98 % 0 mm
22:30 -13.8 °C -13.9 °C 34107.2 hPa Calm     98 % 0 mm
22:45 -13.8 °C -13.9 °C 34107.2 hPa Calm     98 % 0 mm
23:00 -13.8 °C -14 °C 34107.2 hPa Calm     98 % 0 mm
23:15 -13.8 °C -14 °C 34120.7 hPa Calm     98 % 0 mm
23:30 -13.8 °C -14 °C 34120.7 hPa Calm     98 % 0 mm
23:45 -13.8 °C -14 °C 34120.7 hPa Calm     98 % 0 mm
Esan sääasema
Terveisin Weather Underground - 2.75 mb

Alkuperäinen skripti  Jim McMurry - jmcmurry@mwt.net Sovitettu myös templatelle  Wim van der Kuil - Leuven-Template.eu

Laitteet joita käytämme:

Sääasema
Davis VP2

Sääasemaohjelma
Cumulus

Sääaseman tietokone
Asus EeePC

Palveluntarjoaja
Suncomet

Davis VP2

Cumulus

Asus EeePC

Suncomet